This is the latest recevied weather packets stored in our database for station/object HJ3GNC-17. If no packets are shown the sender has not sent any weather packets the latest 1 day(s).
| Time | Temp. | Humidity | Pressure | Rain* | Wind** | Luminosity | Snow |
|---|---|---|---|---|---|---|---|
| 1778113076 | 13.89° C | 51% | 1018 hPa | 0 mm | - | - | - |
| 1778108332 | 12.78° C | 85% | 1016 hPa | 0 mm | - | - | - |
| 1778101581 | 12.78° C | 85% | 1014 hPa | 0 mm | - | - | - |
| 1778099689 | 12.78° C | 85% | 1014 hPa | 0 mm | - | - | - |
| 1778097789 | 12.78° C | 85% | 1015 hPa | 0 mm | - | - | - |
| 1778096838 | 12.78° C | 85% | 1015 hPa | 0 mm | - | - | - |
| 1778093982 | 12.78° C | 82% | 1016 hPa | 0 mm | - | - | - |
| 1778093033 | 13.33° C | 76% | 1017 hPa | 0 mm | - | - | - |
| 1778091144 | 10.56° C | 92% | 1018 hPa | 0 mm | - | - | - |
| 1778088273 | 10.56° C | 92% | 1018 hPa | 0 mm | - | - | - |
| 1778085443 | 10.56° C | 92% | 1019 hPa | 0 mm | - | - | - |
| 1778084468 | 10.56° C | 92% | 1019 hPa | 0 mm | - | - | - |
| 1778081618 | 10.56° C | 92% | 1019 hPa | 0 mm | - | - | - |
| 1778080665 | 11.11° C | 92% | 1019 hPa | 0 mm | - | - | - |
| 1778078705 | 11.11° C | 93% | 1019 hPa | 0 mm | - | - | - |
| 1778077762 | 11.11° C | 95% | 1019 hPa | 0 mm | - | - | - |
| 1778076810 | 11.11° C | 97% | 1019 hPa | 0 mm | - | - | - |
| 1778069229 | 8.89° C | 98% | 1020 hPa | 0 mm | - | - | - |
| 1778066388 | 8.89° C | 98% | 1020 hPa | 0 mm | - | - | - |
| 1778064505 | 8.89° C | 98% | 1020 hPa | 0 mm | - | - | - |
| 1778063559 | 8.89° C | 98% | 1019 hPa | 0 mm | - | - | - |
| 1778061671 | 8.89° C | 98% | 1019 hPa | 0 mm | - | - | - |
| 1778060727 | 8.89° C | 98% | 1019 hPa | 0 mm | - | - | - |
| 1778056938 | 8.89° C | 98% | 1019 hPa | 0 mm | - | - | - |
| 1778055997 | 8.89° C | 97% | 1019 hPa | 0 mm | - | - | - |
* Rain latest hour (hover to see other rain measurements)
** Current wind speed in m/s (hover to see current wind gust speed)